createdAt,value
2019-06-27T00:01:03.260Z,3.80
2019-06-27T00:03:32.128Z,3.73
2019-06-27T00:06:01.038Z,3.80
2019-06-27T00:08:29.911Z,3.77
2019-06-27T00:10:58.824Z,3.67
2019-06-27T00:13:27.664Z,3.43
2019-06-27T00:15:56.572Z,3.10
2019-06-27T00:18:25.450Z,3.50
2019-06-27T00:20:55.540Z,3.43
2019-06-27T00:23:24.448Z,3.43
2019-06-27T00:25:53.338Z,3.17
2019-06-27T00:28:22.197Z,3.57
2019-06-27T00:30:51.100Z,4.07
2019-06-27T00:33:19.971Z,3.90
2019-06-27T00:35:48.885Z,3.63
2019-06-27T00:38:17.762Z,3.43
2019-06-27T00:40:46.634Z,4.30
2019-06-27T00:43:15.546Z,3.60
2019-06-27T00:45:44.422Z,3.97
2019-06-27T00:48:13.304Z,3.47
2019-06-27T00:50:42.178Z,3.87
2019-06-27T00:53:11.074Z,3.60
2019-06-27T00:55:39.950Z,3.97
2019-06-27T00:58:08.842Z,3.57
2019-06-27T01:00:37.729Z,3.87
2019-06-27T01:03:06.646Z,3.73
2019-06-27T01:05:35.522Z,3.70
2019-06-27T01:08:04.390Z,3.60
2019-06-27T01:10:33.307Z,3.73
2019-06-27T01:13:02.185Z,3.50
2019-06-27T01:15:31.085Z,3.37
2019-06-27T01:17:59.972Z,3.30
2019-06-27T01:20:28.844Z,3.70
2019-06-27T01:22:57.736Z,3.60
2019-06-27T01:25:26.677Z,3.60
2019-06-27T01:27:55.546Z,3.30
2019-06-27T01:30:24.463Z,4.00
2019-06-27T01:32:53.346Z,3.47
2019-06-27T01:35:22.246Z,3.90
2019-06-27T01:37:51.164Z,3.70
2019-06-27T01:40:20.052Z,3.90
2019-06-27T01:42:49.001Z,4.00
2019-06-27T01:45:36.952Z,3.17
2019-06-27T01:48:05.837Z,3.60
2019-06-27T01:50:34.756Z,3.90
2019-06-27T01:53:03.656Z,3.93
2019-06-27T01:55:32.574Z,3.67
2019-06-27T01:58:01.483Z,3.57
2019-06-27T02:00:30.362Z,3.83
2019-06-27T02:02:59.280Z,3.80
2019-06-27T02:05:28.197Z,3.60
2019-06-27T02:07:57.107Z,3.83
2019-06-27T02:10:26.020Z,3.50
2019-06-27T02:12:54.936Z,3.57
2019-06-27T02:15:23.857Z,3.60
2019-06-27T02:17:52.797Z,4.43
2019-06-27T02:20:21.694Z,3.80
2019-06-27T02:22:50.599Z,4.10
2019-06-27T02:25:19.503Z,3.93
2019-06-27T02:28:02.641Z,4.30
2019-06-27T02:30:17.994Z,4.20
2019-06-27T02:32:46.883Z,4.30
2019-06-27T02:35:15.816Z,4.70
2019-06-27T02:37:44.741Z,4.00
2019-06-27T02:40:13.631Z,3.57
2019-06-27T02:42:42.549Z,3.63
2019-06-27T02:45:11.469Z,3.57
2019-06-27T02:47:40.326Z,3.90
2019-06-27T02:50:09.285Z,4.13
2019-06-27T02:52:38.190Z,4.10
2019-06-27T02:55:07.211Z,4.78
2019-06-27T02:57:36.006Z,3.97
2019-06-27T03:00:04.964Z,4.03
2019-06-27T03:02:33.839Z,3.90
2019-06-27T03:05:02.774Z,4.30
2019-06-27T03:07:31.657Z,4.10
2019-06-27T03:10:00.542Z,4.40
2019-06-27T03:12:29.477Z,4.70
2019-06-27T03:14:58.341Z,4.47
2019-06-27T03:17:27.260Z,4.40
2019-06-27T03:19:56.130Z,4.40
2019-06-27T03:22:25.023Z,4.00
2019-06-27T03:24:53.927Z,4.13
2019-06-27T03:27:22.839Z,4.13
2019-06-27T03:29:51.746Z,4.60
2019-06-27T03:32:20.658Z,4.30
2019-06-27T03:34:49.559Z,4.70
2019-06-27T03:37:18.470Z,4.33
2019-06-27T03:39:47.358Z,4.40
2019-06-27T03:42:16.276Z,3.83
2019-06-27T03:44:45.185Z,4.47
2019-06-27T03:47:14.071Z,4.33
2019-06-27T03:49:42.975Z,4.13
2019-06-27T03:52:11.869Z,4.37
2019-06-27T03:54:40.792Z,4.57
2019-06-27T03:57:09.767Z,4.00
2019-06-27T03:59:38.679Z,4.73
2019-06-27T04:02:07.674Z,5.13
2019-06-27T04:04:36.562Z,4.17
2019-06-27T04:07:05.737Z,4.10
2019-06-27T04:09:34.574Z,4.57
2019-06-27T04:12:03.512Z,4.60
2019-06-27T04:14:32.422Z,4.77
2019-06-27T04:17:01.353Z,4.47
2019-06-27T04:19:30.233Z,4.57
2019-06-27T04:21:59.150Z,4.47
2019-06-27T04:24:28.074Z,4.60
2019-06-27T04:26:57.038Z,4.50
2019-06-27T04:29:33.450Z,4.37
2019-06-27T04:31:54.856Z,4.47
2019-06-27T04:34:23.755Z,3.50
2019-06-27T04:36:52.659Z,4.50
2019-06-27T04:39:21.561Z,4.03
2019-06-27T04:41:50.481Z,4.33
2019-06-27T04:44:19.380Z,3.50
2019-06-27T04:46:48.305Z,4.03
2019-06-27T04:49:17.215Z,3.80
2019-06-27T04:51:46.108Z,4.03
2019-06-27T04:54:15.009Z,4.07
2019-06-27T04:56:43.911Z,3.90
2019-06-27T04:59:12.811Z,3.80
2019-06-27T05:01:41.750Z,3.87
2019-06-27T05:04:10.644Z,4.00
2019-06-27T05:06:39.564Z,4.20
2019-06-27T05:09:08.477Z,3.83
2019-06-27T05:11:37.380Z,3.90
2019-06-27T05:14:06.401Z,4.10
2019-06-27T05:16:35.300Z,3.83
2019-06-27T05:19:04.292Z,3.70
2019-06-27T05:21:33.141Z,4.07
2019-06-27T05:24:02.047Z,3.77
2019-06-27T05:26:30.966Z,3.60
2019-06-27T05:28:59.874Z,3.87
2019-06-27T05:31:28.778Z,3.70
2019-06-27T05:33:57.690Z,3.50
2019-06-27T05:36:26.566Z,3.63
2019-06-27T05:38:55.480Z,4.45
2019-06-27T05:41:24.429Z,3.57
2019-06-27T05:43:53.353Z,3.47
2019-06-27T05:46:22.242Z,3.98
2019-06-27T05:48:51.171Z,3.80
2019-06-27T05:51:20.138Z,3.73
2019-06-27T05:53:49.039Z,3.40
2019-06-27T05:56:17.935Z,3.60
2019-06-27T05:58:46.861Z,3.30
2019-06-27T06:01:15.794Z,3.73
2019-06-27T06:03:44.690Z,4.35
2019-06-27T06:06:13.585Z,3.40
2019-06-27T06:08:42.463Z,3.57
2019-06-27T06:11:11.377Z,3.83
2019-06-27T06:13:40.241Z,3.50
2019-06-27T06:16:09.288Z,3.40
2019-06-27T06:18:38.195Z,3.30
2019-06-27T06:21:07.342Z,3.50
2019-06-27T06:23:36.100Z,3.62
2019-06-27T06:26:05.167Z,3.40
2019-06-27T06:28:34.039Z,3.98
2019-06-27T06:31:02.944Z,3.33
2019-06-27T06:33:31.848Z,3.72
2019-06-27T06:36:00.774Z,3.33
2019-06-27T06:38:29.742Z,3.05
2019-06-27T06:40:58.634Z,3.15
2019-06-27T06:43:27.552Z,2.87
2019-06-27T06:45:56.444Z,3.33
2019-06-27T06:48:25.392Z,3.02
2019-06-27T06:50:54.378Z,3.25
2019-06-27T06:53:23.385Z,2.83
2019-06-27T06:55:52.212Z,2.80
2019-06-27T06:58:21.137Z,3.02
2019-06-27T07:01:00.837Z,2.70
2019-06-27T07:03:18.981Z,3.22
2019-06-27T07:05:47.860Z,3.17
2019-06-27T07:08:16.781Z,3.12
2019-06-27T07:10:45.674Z,3.10
2019-06-27T07:13:14.583Z,3.42
2019-06-27T07:15:43.473Z,2.80
2019-06-27T07:18:12.391Z,3.20
2019-06-27T07:20:41.339Z,3.22
2019-06-27T07:23:10.268Z,3.37
2019-06-27T07:25:39.201Z,2.90
2019-06-27T07:28:08.159Z,3.02
2019-06-27T07:30:37.060Z,2.70
2019-06-27T07:33:06.043Z,3.02
2019-06-27T07:35:34.960Z,2.98
2019-06-27T07:38:03.914Z,3.25
2019-06-27T07:40:32.821Z,2.87
2019-06-27T07:43:01.714Z,3.25
2019-06-27T07:45:30.629Z,2.95
2019-06-27T07:47:59.548Z,3.00
2019-06-27T07:50:28.428Z,2.70
2019-06-27T07:52:57.370Z,3.20
2019-06-27T07:55:26.300Z,2.75
2019-06-27T07:57:55.194Z,3.08
2019-06-27T08:00:24.075Z,3.20
2019-06-27T08:02:53.018Z,3.02
2019-06-27T08:05:21.929Z,3.00
2019-06-27T08:07:50.842Z,3.35
2019-06-27T08:10:19.762Z,3.30
2019-06-27T08:12:48.661Z,3.37
2019-06-27T08:15:17.572Z,3.33
2019-06-27T08:17:46.455Z,3.10
2019-06-27T08:20:15.358Z,3.05
2019-06-27T08:22:44.243Z,2.65
2019-06-27T08:25:13.160Z,2.95
2019-06-27T08:27:42.087Z,3.77
2019-06-27T08:30:10.991Z,3.58
2019-06-27T08:32:39.905Z,3.37
2019-06-27T08:35:08.831Z,3.33
2019-06-27T08:37:37.739Z,3.12
2019-06-27T08:40:06.776Z,3.08
2019-06-27T08:42:35.717Z,3.22
2019-06-27T08:45:04.920Z,3.40
2019-06-27T08:47:33.816Z,2.85
2019-06-27T08:50:02.853Z,2.80
2019-06-27T08:52:31.966Z,3.08
2019-06-27T08:55:00.882Z,2.92
2019-06-27T08:57:29.781Z,2.62
2019-06-27T08:59:58.688Z,2.90
2019-06-27T09:02:27.681Z,2.85
2019-06-27T09:04:56.484Z,3.15
2019-06-27T09:07:25.370Z,3.15
2019-06-27T09:09:54.282Z,2.95
2019-06-27T09:12:23.254Z,3.10
2019-06-27T09:14:52.101Z,3.02
2019-06-27T09:17:20.991Z,2.90
2019-06-27T09:19:49.914Z,3.25
2019-06-27T09:22:18.820Z,3.60
2019-06-27T09:24:47.737Z,3.83
2019-06-27T09:27:16.651Z,3.08
2019-06-27T09:29:45.562Z,3.47
2019-06-27T09:32:24.902Z,2.98
2019-06-27T09:34:43.357Z,3.37
2019-06-27T09:37:12.279Z,2.95
2019-06-27T09:39:41.289Z,3.75
2019-06-27T09:42:10.118Z,3.45
2019-06-27T09:44:42.094Z,3.10
2019-06-27T09:47:08.059Z,3.25
2019-06-27T09:49:36.978Z,3.55
2019-06-27T09:52:05.976Z,2.90
2019-06-27T09:54:34.870Z,3.58
2019-06-27T09:57:03.762Z,3.15
2019-06-27T09:59:32.645Z,3.42
2019-06-27T10:02:01.547Z,3.25
2019-06-27T10:04:30.456Z,3.10
2019-06-27T10:06:59.356Z,3.00
2019-06-27T10:09:28.279Z,3.58
2019-06-27T10:11:57.203Z,3.83
2019-06-27T10:14:26.071Z,2.85
2019-06-27T10:16:58.474Z,3.10
2019-06-27T10:19:23.894Z,3.25
2019-06-27T10:21:52.818Z,2.67
2019-06-27T10:24:21.744Z,2.90
2019-06-27T10:26:50.680Z,3.55
2019-06-27T10:29:19.733Z,2.90
2019-06-27T10:31:48.636Z,3.70
2019-06-27T10:34:17.562Z,3.95
2019-06-27T10:36:46.497Z,3.45
2019-06-27T10:39:15.433Z,3.62
2019-06-27T10:41:44.279Z,3.17
2019-06-27T10:44:13.272Z,3.85
2019-06-27T10:46:42.184Z,3.20
2019-06-27T10:49:11.069Z,3.72
2019-06-27T10:51:39.992Z,3.10
2019-06-27T10:54:08.909Z,3.22
2019-06-27T10:56:39.982Z,3.52
2019-06-27T10:59:06.785Z,3.00
2019-06-27T11:01:35.702Z,2.98
2019-06-27T11:04:04.591Z,3.27
2019-06-27T11:06:33.520Z,3.40
2019-06-27T11:09:02.480Z,3.30
2019-06-27T11:11:31.509Z,3.42
2019-06-27T11:14:00.271Z,3.10
2019-06-27T11:16:29.181Z,3.20
2019-06-27T11:18:58.093Z,3.27
2019-06-27T11:21:27.002Z,3.20
2019-06-27T11:23:55.922Z,3.50
2019-06-27T11:26:24.875Z,3.10
2019-06-27T11:28:53.765Z,3.45
2019-06-27T11:31:22.680Z,3.25
2019-06-27T11:33:51.565Z,3.80
2019-06-27T11:36:20.492Z,4.37
2019-06-27T11:38:49.408Z,3.47
2019-06-27T11:41:18.287Z,3.12
2019-06-27T11:43:47.180Z,3.00
2019-06-27T11:46:16.093Z,3.20
2019-06-27T11:48:44.993Z,3.25
2019-06-27T11:51:13.898Z,3.33
2019-06-27T11:53:42.814Z,3.42
2019-06-27T11:56:11.744Z,3.50
2019-06-27T11:58:40.670Z,3.50
2019-06-27T12:01:09.695Z,3.20
2019-06-27T12:03:48.942Z,3.90
2019-06-27T12:06:07.605Z,3.27
2019-06-27T12:08:36.480Z,3.27
2019-06-27T12:11:05.522Z,3.65
2019-06-27T12:13:34.423Z,2.65
2019-06-27T12:16:03.394Z,3.22
2019-06-27T12:18:32.374Z,3.45
2019-06-27T12:21:01.246Z,3.50
2019-06-27T12:23:30.168Z,3.37
2019-06-27T12:25:59.074Z,3.47
2019-06-27T12:28:28.006Z,3.27
2019-06-27T12:30:56.890Z,4.15
2019-06-27T12:33:25.800Z,3.90
2019-06-27T12:35:54.710Z,3.40
2019-06-27T12:38:23.612Z,3.65
2019-06-27T12:40:52.500Z,3.30
2019-06-27T12:43:21.398Z,3.15
2019-06-27T12:45:50.288Z,3.20
2019-06-27T12:48:19.198Z,2.92
2019-06-27T12:50:48.101Z,3.33
2019-06-27T12:53:17.007Z,3.20
2019-06-27T12:55:45.933Z,3.62
2019-06-27T12:58:15.327Z,3.50
2019-06-27T13:00:44.550Z,3.20
2019-06-27T13:03:13.745Z,3.83
2019-06-27T13:05:43.191Z,3.70
2019-06-27T13:08:15.217Z,3.70
2019-06-27T13:10:44.810Z,3.92
2019-06-27T13:13:13.893Z,3.98
2019-06-27T13:15:43.140Z,3.65
2019-06-27T13:18:14.408Z,4.92
2019-06-27T13:20:57.219Z,5.10
2019-06-27T13:23:12.687Z,5.15
2019-06-27T13:25:43.850Z,4.65
2019-06-27T13:28:13.005Z,4.90
2019-06-27T13:30:42.378Z,4.72
2019-06-27T13:33:14.006Z,3.85
2019-06-27T13:35:43.193Z,3.72
2019-06-27T13:38:12.186Z,3.70
2019-06-27T13:40:41.314Z,3.02
2019-06-27T13:43:10.697Z,3.33
2019-06-27T13:45:39.807Z,2.75
2019-06-27T13:48:09.018Z,2.87
2019-06-27T13:50:38.123Z,3.02
2019-06-27T13:53:07.834Z,2.80
2019-06-27T13:55:36.751Z,2.50
2019-06-27T13:58:11.426Z,2.60
2019-06-27T14:00:44.882Z,2.85
2019-06-27T14:03:13.834Z,2.80
2019-06-27T14:05:42.745Z,3.00
2019-06-27T14:08:11.726Z,2.52
2019-06-27T14:10:40.628Z,2.42
2019-06-27T14:13:09.587Z,2.70
2019-06-27T14:15:38.469Z,2.80
2019-06-27T14:18:07.508Z,3.05
2019-06-27T14:20:36.438Z,2.62
2019-06-27T14:23:05.509Z,2.62
2019-06-27T14:25:34.386Z,2.30
2019-06-27T14:28:03.448Z,2.95
2019-06-27T14:30:32.266Z,3.08
2019-06-27T14:33:01.714Z,2.47
2019-06-27T14:35:30.562Z,2.58
2019-06-27T14:37:59.509Z,2.30
2019-06-27T14:40:28.391Z,2.37
2019-06-27T14:42:57.305Z,2.50
2019-06-27T14:45:26.234Z,2.92
2019-06-27T14:47:55.118Z,2.60
2019-06-27T14:50:24.068Z,2.67
2019-06-27T14:52:52.949Z,2.20
2019-06-27T14:55:22.473Z,2.47
2019-06-27T14:57:51.405Z,2.50
2019-06-27T15:00:20.289Z,2.52
2019-06-27T15:02:49.162Z,2.40
2019-06-27T15:05:32.072Z,2.70
2019-06-27T15:07:46.960Z,2.55
2019-06-27T15:10:15.875Z,2.10
2019-06-27T15:12:56.493Z,2.30
2019-06-27T15:15:13.696Z,3.02
2019-06-27T15:17:42.610Z,2.62
2019-06-27T15:20:11.510Z,2.87
2019-06-27T15:22:40.416Z,3.05
2019-06-27T15:25:09.440Z,2.70
2019-06-27T15:27:38.373Z,3.00
2019-06-27T15:30:07.432Z,3.10
2019-06-27T15:32:36.346Z,3.22
2019-06-27T15:35:05.464Z,3.08
2019-06-27T15:37:34.369Z,2.80
2019-06-27T15:40:03.350Z,3.20
2019-06-27T15:42:32.255Z,2.87
2019-06-27T15:45:01.170Z,3.00
2019-06-27T15:47:30.087Z,2.90
2019-06-27T15:49:59.002Z,2.77
2019-06-27T15:52:27.901Z,2.83
2019-06-27T15:54:56.793Z,2.75
2019-06-27T15:57:25.710Z,2.65
2019-06-27T15:59:54.633Z,2.27
2019-06-27T16:02:23.496Z,2.85
2019-06-27T16:04:52.405Z,2.87
2019-06-27T16:07:21.286Z,2.65
2019-06-27T16:09:50.185Z,2.60
2019-06-27T16:12:19.064Z,2.72
2019-06-27T16:14:47.977Z,2.42
2019-06-27T16:17:16.857Z,2.58
2019-06-27T16:19:45.766Z,2.80
2019-06-27T16:22:14.653Z,2.70
2019-06-27T16:24:43.564Z,2.77
2019-06-27T16:27:12.470Z,2.50
2019-06-27T16:29:41.375Z,2.72
2019-06-27T16:32:10.254Z,2.67
2019-06-27T16:34:39.175Z,2.40
2019-06-27T16:37:08.197Z,2.30
2019-06-27T16:39:38.981Z,2.55
2019-06-27T16:42:06.101Z,2.47
2019-06-27T16:44:34.967Z,2.52
2019-06-27T16:47:03.862Z,2.62
2019-06-27T16:49:32.747Z,2.60
2019-06-27T16:52:01.694Z,2.85
2019-06-27T16:54:30.528Z,3.42
2019-06-27T16:56:59.438Z,3.30
2019-06-27T16:59:28.325Z,3.00
2019-06-27T17:01:57.217Z,3.42
2019-06-27T17:04:26.163Z,3.65
2019-06-27T17:06:55.045Z,3.45
2019-06-27T17:09:23.936Z,3.80
2019-06-27T17:11:52.852Z,3.75
2019-06-27T17:14:21.751Z,3.65
2019-06-27T17:16:50.628Z,4.20
2019-06-27T17:19:19.529Z,4.28
2019-06-27T17:21:48.416Z,3.90
2019-06-27T17:24:17.324Z,4.05
2019-06-27T17:26:46.209Z,4.33
2019-06-27T17:29:15.110Z,4.25
2019-06-27T17:31:44.026Z,4.67
2019-06-27T17:34:14.235Z,4.60
2019-06-27T17:36:56.561Z,4.15
2019-06-27T17:39:10.722Z,3.80
2019-06-27T17:41:39.620Z,3.95
2019-06-27T17:44:08.627Z,4.03
2019-06-27T17:46:37.511Z,4.08
2019-06-27T17:49:06.548Z,4.72
2019-06-27T17:51:35.441Z,4.28
2019-06-27T17:54:04.440Z,4.60
2019-06-27T17:56:33.349Z,3.98
2019-06-27T17:59:02.289Z,4.20
2019-06-27T18:01:31.463Z,3.75
2019-06-27T18:04:00.376Z,4.73
2019-06-27T18:06:29.320Z,4.62
2019-06-27T18:08:58.245Z,4.15
2019-06-27T18:11:27.121Z,4.35
2019-06-27T18:13:56.037Z,4.08
2019-06-27T18:16:24.928Z,3.95
2019-06-27T18:18:53.834Z,4.20
2019-06-27T18:21:22.727Z,4.10
2019-06-27T18:23:51.657Z,4.10
2019-06-27T18:26:20.526Z,4.35
2019-06-27T18:28:49.421Z,4.00
2019-06-27T18:31:18.320Z,3.83
2019-06-27T18:33:47.217Z,3.77
2019-06-27T18:36:16.097Z,3.95
2019-06-27T18:38:45.029Z,3.62
2019-06-27T18:41:13.912Z,3.83
2019-06-27T18:43:42.881Z,3.87
2019-06-27T18:46:11.771Z,4.47
2019-06-27T18:48:40.674Z,3.70
2019-06-27T18:51:09.703Z,3.80
2019-06-27T18:53:38.629Z,3.52
2019-06-27T18:56:07.674Z,4.00
2019-06-27T18:58:36.521Z,4.25
2019-06-27T19:01:05.534Z,4.00
2019-06-27T19:03:34.411Z,3.55
2019-06-27T19:06:03.409Z,3.72
2019-06-27T19:08:32.272Z,3.58
2019-06-27T19:11:01.299Z,3.80
2019-06-27T19:13:30.065Z,4.25
2019-06-27T19:15:58.966Z,4.00
2019-06-27T19:18:48.564Z,3.90
2019-06-27T19:21:26.962Z,4.03
2019-06-27T19:24:04.217Z,4.28
2019-06-27T19:26:33.102Z,3.83
2019-06-27T19:29:02.505Z,3.95
2019-06-27T19:31:30.945Z,4.65
2019-06-27T19:33:59.820Z,4.50
2019-06-27T19:36:28.734Z,4.70
2019-06-27T19:38:57.654Z,4.22
2019-06-27T19:41:26.538Z,4.40
2019-06-27T19:43:55.445Z,4.42
2019-06-27T19:46:24.355Z,4.70
2019-06-27T19:48:53.269Z,4.53
2019-06-27T19:51:22.267Z,4.72
2019-06-27T19:53:51.847Z,4.53
2019-06-27T19:56:20.892Z,4.17
2019-06-27T19:58:49.816Z,4.53
2019-06-27T20:01:18.731Z,4.75
2019-06-27T20:03:47.631Z,4.80
2019-06-27T20:06:16.565Z,4.63
2019-06-27T20:08:45.477Z,4.57
2019-06-27T20:11:14.389Z,4.50
2019-06-27T20:13:43.304Z,4.60
2019-06-27T20:16:12.203Z,4.60
2019-06-27T20:18:41.120Z,4.90
2019-06-27T20:21:10.127Z,4.63
2019-06-27T20:23:39.009Z,5.37
2019-06-27T20:26:07.916Z,5.15
2019-06-27T20:28:36.802Z,5.22
2019-06-27T20:31:05.821Z,4.83
2019-06-27T20:33:34.704Z,4.63
2019-06-27T20:36:03.599Z,4.60
2019-06-27T20:38:35.185Z,5.00
2019-06-27T20:41:01.400Z,4.57
2019-06-27T20:43:30.296Z,5.20
2019-06-27T20:45:59.198Z,5.13
2019-06-27T20:48:28.077Z,4.30
2019-06-27T20:50:57.024Z,5.00
2019-06-27T20:53:25.897Z,4.77
2019-06-27T20:55:54.813Z,5.60
2019-06-27T20:58:23.686Z,5.47
2019-06-27T21:00:52.596Z,4.83
2019-06-27T21:03:21.518Z,5.50
2019-06-27T21:05:50.414Z,5.63
2019-06-27T21:08:19.294Z,4.97
2019-06-27T21:10:48.183Z,4.93
2019-06-27T21:13:17.086Z,5.37
2019-06-27T21:15:46.011Z,5.50
2019-06-27T21:18:14.903Z,5.20
2019-06-27T21:20:43.828Z,5.27
2019-06-27T21:23:12.713Z,6.03
2019-06-27T21:25:41.625Z,6.12
2019-06-27T21:28:10.552Z,6.33
2019-06-27T21:30:39.468Z,5.77
2019-06-27T21:33:08.464Z,5.70
2019-06-27T21:35:37.374Z,5.13
2019-06-27T21:38:06.266Z,5.40
2019-06-27T21:40:35.181Z,5.03
2019-06-27T21:43:04.075Z,5.30
2019-06-27T21:45:32.976Z,5.37
2019-06-27T21:48:01.971Z,5.37
2019-06-27T21:50:30.803Z,5.57
2019-06-27T21:52:59.679Z,5.70
2019-06-27T21:55:28.570Z,5.43
2019-06-27T21:57:59.981Z,6.07
2019-06-27T22:00:26.971Z,6.17
2019-06-27T22:02:55.874Z,5.77
2019-06-27T22:05:24.784Z,5.53
2019-06-27T22:07:53.859Z,5.40
2019-06-27T22:10:22.567Z,5.53
2019-06-27T22:12:51.470Z,6.03
2019-06-27T22:15:20.392Z,5.93
2019-06-27T22:17:49.282Z,5.77
2019-06-27T22:20:18.191Z,6.30
2019-06-27T22:22:47.090Z,6.23
2019-06-27T22:25:16.029Z,6.20
2019-06-27T22:27:44.934Z,6.85
2019-06-27T22:30:13.841Z,5.70
2019-06-27T22:32:42.777Z,5.93
2019-06-27T22:35:11.683Z,6.10
2019-06-27T22:37:58.546Z,6.60
2019-06-27T22:40:45.660Z,6.10
2019-06-27T22:43:32.467Z,6.60
2019-06-27T22:46:18.970Z,6.13
2019-06-27T22:48:47.067Z,6.50
2019-06-27T22:51:33.858Z,6.57
2019-06-27T22:54:03.181Z,7.42
2019-06-27T22:56:32.095Z,6.63
2019-06-27T22:59:01.017Z,6.60
2019-06-27T23:01:29.906Z,6.30
2019-06-27T23:03:58.817Z,6.13
2019-06-27T23:06:27.719Z,6.53
2019-06-27T23:08:56.626Z,6.67
2019-06-27T23:11:25.536Z,6.77
2019-06-27T23:13:54.446Z,7.67
2019-06-27T23:16:23.343Z,7.00
2019-06-27T23:18:52.243Z,7.03
2019-06-27T23:21:21.145Z,7.43
2019-06-27T23:23:50.031Z,6.97
2019-06-27T23:26:18.909Z,6.67
2019-06-27T23:28:47.834Z,7.07
2019-06-27T23:31:16.751Z,7.13
2019-06-27T23:33:45.680Z,7.37
2019-06-27T23:36:14.565Z,7.43
2019-06-27T23:38:43.475Z,7.13
2019-06-27T23:41:12.378Z,6.60
2019-06-27T23:43:41.284Z,7.17
2019-06-27T23:46:29.320Z,7.07
2019-06-27T23:48:58.288Z,6.80
2019-06-27T23:51:27.142Z,7.53
2019-06-27T23:53:56.097Z,7.23
2019-06-27T23:56:24.973Z,7.80
2019-06-27T23:58:53.868Z,7.83
